KTEX/TEX METAR and TAF weather

Enter ICAO airport designator
Station Type Date Time Source
KTEX METAR 2020/09/18 16:15 UTC NOAA

KTEX 181615Z AUTO 13003KT 7SM CLR 17/M03 A3057 RMK AO2


Station Type Date Time Source
KTEX Decoded METAR 2020/09/18 16:15 UTC NOAA

Telluride, Telluride Regional Airport, CO, United States (KTEX) 37-57-14N 107-54-31W
Sep 18, 2020 - 12:15 PM EDT / 2020.09.18 1615 UTC
Wind: from the SE (130 degrees) at 3 MPH (3 KT):0
Visibility: 7 mile(s):0
Sky conditions: clear
Temperature: 62 F (17 C)
Dew Point: 26 F (-3 C)
Relative Humidity: 25%
Pressure (altimeter): 30.57 in. Hg (1035 hPa)
ob: KTEX 181615Z AUTO 13003KT 7SM CLR 17/M03 A3057 RMK AO2
cycle: 16

Station Type Date Time Source
KTEX TAF 2020/09/18 13:39 UTC NOAA

TAF KTEX 181235Z 1813/1912 14006KT P6SM SKC
FM181800 23006KT P6SM FEW250
FM182200 26009KT P6SM BKN180
FM190300 14005KT P6SM SCT200
FM190600 14007KT P6SM SCT250

Example: see airport list